createdAt,value
2022-12-05T00:05:12.648Z,32.80
2022-12-05T00:07:55.656Z,29.50
2022-12-05T00:10:39.752Z,33.00
2022-12-05T00:13:22.564Z,31.90
2022-12-05T00:18:50.538Z,31.20
2022-12-05T00:21:36.597Z,35.20
2022-12-05T00:24:20.362Z,34.30
2022-12-05T00:27:03.160Z,33.50
2022-12-05T00:32:30.251Z,32.60
2022-12-05T00:35:13.147Z,31.50
2022-12-05T00:40:38.537Z,32.50
2022-12-05T00:43:21.291Z,29.80
2022-12-05T00:48:48.435Z,30.90
2022-12-05T00:51:34.317Z,31.10
2022-12-05T00:54:18.020Z,33.70
2022-12-05T00:57:00.875Z,29.70
2022-12-05T01:02:26.486Z,31.00
2022-12-05T01:07:52.058Z,30.10
2022-12-05T01:10:35.127Z,31.20
2022-12-05T01:13:18.041Z,31.90
2022-12-05T01:16:01.627Z,29.40
2022-12-05T01:18:45.103Z,31.20
2022-12-05T01:21:27.963Z,32.50
2022-12-05T01:26:54.907Z,32.30
2022-12-05T01:29:37.647Z,31.70
2022-12-05T01:32:20.531Z,32.30
2022-12-05T01:35:03.610Z,28.80
2022-12-05T01:37:46.647Z,30.20
2022-12-05T01:40:29.486Z,31.60
2022-12-05T01:45:59.734Z,35.30
2022-12-05T01:48:43.516Z,31.70
2022-12-05T01:51:26.501Z,31.10
2022-12-05T01:54:11.290Z,32.50
2022-12-05T01:57:02.859Z,32.90
2022-12-05T01:59:55.949Z,30.20
2022-12-05T02:02:46.533Z,29.00
2022-12-05T02:05:32.416Z,33.80
2022-12-05T02:08:16.157Z,30.40
2022-12-05T02:10:59.217Z,30.00
2022-12-05T02:13:48.115Z,31.60
2022-12-05T02:16:45.724Z,29.10
2022-12-05T02:19:56.931Z,28.30
2022-12-05T02:23:17.447Z,30.20
2022-12-05T02:26:16.557Z,27.70
2022-12-05T02:29:25.767Z,28.20
2022-12-05T02:32:17.511Z,28.20
2022-12-05T02:35:25.107Z,28.10
2022-12-05T02:38:13.588Z,28.50
2022-12-05T02:41:02.787Z,29.50
2022-12-05T02:43:56.768Z,29.10
2022-12-05T02:46:41.612Z,26.60
2022-12-05T02:49:30.415Z,29.40
2022-12-05T02:52:16.969Z,29.70
2022-12-05T02:55:02.020Z,25.60
2022-12-05T02:57:51.679Z,28.60
2022-12-05T03:00:36.049Z,25.60
2022-12-05T03:03:22.455Z,28.80
2022-12-05T03:06:09.487Z,30.90
2022-12-05T03:09:00.954Z,26.30
2022-12-05T03:11:49.534Z,28.00
2022-12-05T03:14:38.382Z,26.30
2022-12-05T03:17:38.204Z,27.50
2022-12-05T03:20:32.716Z,26.40
2022-12-05T03:23:22.697Z,26.30
2022-12-05T03:26:17.815Z,28.30
2022-12-05T03:29:08.184Z,29.50
2022-12-05T03:32:10.034Z,27.20
2022-12-05T03:35:18.425Z,29.60
2022-12-05T03:38:08.668Z,29.50
2022-12-05T03:41:09.528Z,29.80
2022-12-05T03:44:16.419Z,28.10
2022-12-05T03:47:17.176Z,30.10
2022-12-05T03:50:09.188Z,29.50
2022-12-05T03:53:20.034Z,27.90
2022-12-05T03:56:12.899Z,28.70
2022-12-05T03:59:05.589Z,28.30
2022-12-05T04:01:51.130Z,29.50
2022-12-05T04:04:55.368Z,28.60
2022-12-05T04:07:40.617Z,30.80
2022-12-05T04:10:28.967Z,28.00
2022-12-05T04:13:18.036Z,27.10
2022-12-05T04:16:44.211Z,28.90
2022-12-05T04:20:04.115Z,30.30
2022-12-05T04:22:47.697Z,26.00
2022-12-05T04:26:04.772Z,28.40
2022-12-05T04:28:50.235Z,27.00
2022-12-05T04:31:40.978Z,28.40
2022-12-05T04:34:28.284Z,28.00
2022-12-05T04:37:15.271Z,28.00
2022-12-05T04:40:07.890Z,29.30
2022-12-05T04:42:53.652Z,29.90
2022-12-05T04:45:40.901Z,28.40
2022-12-05T04:48:27.924Z,27.70
2022-12-05T04:51:21.931Z,27.90
2022-12-05T04:54:14.924Z,29.20
2022-12-05T04:59:47.365Z,28.70
2022-12-05T05:02:38.396Z,28.60
2022-12-05T05:05:23.523Z,27.50
2022-12-05T05:08:17.616Z,29.50
2022-12-05T05:11:07.133Z,28.30
2022-12-05T05:13:50.492Z,29.10
2022-12-05T05:16:39.559Z,29.40
2022-12-05T05:19:22.419Z,28.50
2022-12-05T05:24:48.268Z,26.50
2022-12-05T05:30:14.005Z,28.50
2022-12-05T05:33:00.447Z,29.30
2022-12-05T05:35:43.231Z,31.90
2022-12-05T05:41:14.998Z,30.20
2022-12-05T05:43:58.095Z,30.20
2022-12-05T05:46:41.054Z,29.40
2022-12-05T05:49:24.075Z,28.80
2022-12-05T05:52:06.919Z,31.80
2022-12-05T05:57:32.451Z,30.00
2022-12-05T06:03:01.019Z,31.70
2022-12-05T06:05:46.439Z,35.90
2022-12-05T06:08:36.245Z,31.00
2022-12-05T06:11:25.878Z,28.90
2022-12-05T06:14:09.768Z,30.90
2022-12-05T06:16:52.551Z,29.30
2022-12-05T06:22:18.275Z,30.80
2022-12-05T06:27:43.820Z,30.50
2022-12-05T06:30:26.588Z,30.50
2022-12-05T06:36:06.454Z,30.30
2022-12-05T06:38:49.999Z,30.20
2022-12-05T06:41:33.843Z,32.60
2022-12-05T06:44:17.261Z,29.40
2022-12-05T06:47:00.284Z,30.80
2022-12-05T06:49:43.194Z,31.00
2022-12-05T06:52:26.011Z,35.30
2022-12-05T06:57:51.940Z,30.80
2022-12-05T07:00:53.742Z,31.50
2022-12-05T07:03:37.022Z,32.80
2022-12-05T07:06:23.364Z,29.40
2022-12-05T07:09:06.945Z,31.30
2022-12-05T07:11:51.379Z,31.90
2022-12-05T07:14:50.239Z,30.70
2022-12-05T07:17:37.278Z,30.00
2022-12-05T07:20:20.073Z,31.20
2022-12-05T07:23:03.232Z,32.90
2022-12-05T07:25:46.212Z,32.80
2022-12-05T07:28:29.076Z,32.20
2022-12-05T07:31:15.391Z,31.60
2022-12-05T07:33:58.535Z,31.50
2022-12-05T07:36:41.259Z,33.40
2022-12-05T07:39:24.056Z,29.90
2022-12-05T07:44:50.709Z,32.10
2022-12-05T07:47:33.452Z,31.40
2022-12-05T07:52:58.919Z,30.20
2022-12-05T07:58:24.561Z,28.70
2022-12-05T08:01:19.122Z,29.10
2022-12-05T08:04:02.159Z,28.40
2022-12-05T08:06:48.220Z,29.90
2022-12-05T08:09:31.007Z,30.90
2022-12-05T08:14:56.692Z,28.60
2022-12-05T08:20:22.408Z,31.10
2022-12-05T08:23:05.144Z,28.70
2022-12-05T08:28:31.691Z,31.70
2022-12-05T08:31:17.623Z,31.90
2022-12-05T08:34:01.116Z,32.90
2022-12-05T08:36:44.267Z,31.90
2022-12-05T08:39:27.507Z,31.90
2022-12-05T08:42:11.662Z,31.60
2022-12-05T08:44:54.484Z,33.10
2022-12-05T08:47:37.392Z,30.70
2022-12-05T08:50:22.450Z,32.40
2022-12-05T08:53:05.209Z,32.30
2022-12-05T08:58:31.452Z,29.60
2022-12-05T09:01:22.319Z,32.30
2022-12-05T09:04:05.967Z,31.60
2022-12-05T09:06:48.840Z,31.70
2022-12-05T09:09:32.697Z,31.20
2022-12-05T09:12:15.591Z,30.60
2022-12-05T09:14:58.541Z,31.20
2022-12-05T09:17:41.632Z,31.30
2022-12-05T09:20:24.592Z,31.80
2022-12-05T09:23:11.638Z,34.40
2022-12-05T09:25:58.260Z,32.90
2022-12-05T09:28:42.700Z,32.10
2022-12-05T09:31:27.551Z,31.40
2022-12-05T09:34:13.459Z,31.10
2022-12-05T09:37:10.555Z,32.10
2022-12-05T09:40:00.757Z,32.20
2022-12-05T09:43:07.311Z,32.60
2022-12-05T09:46:25.541Z,31.70
2022-12-05T09:49:11.171Z,29.50
2022-12-05T09:51:55.642Z,32.60
2022-12-05T09:54:38.504Z,30.10
2022-12-05T10:00:17.914Z,34.20
2022-12-05T10:03:21.759Z,32.50
2022-12-05T10:06:21.759Z,32.50
2022-12-05T10:09:13.931Z,32.90
2022-12-05T10:12:25.800Z,30.70
2022-12-05T10:15:46.058Z,29.60
2022-12-05T10:18:40.437Z,32.80
2022-12-05T10:21:36.671Z,31.70
2022-12-05T10:24:34.770Z,34.40
2022-12-05T10:27:39.521Z,35.60
2022-12-05T10:30:30.057Z,34.70
2022-12-05T10:33:19.548Z,31.90
2022-12-05T10:36:09.400Z,35.80
2022-12-05T10:38:52.845Z,32.80
2022-12-05T10:41:35.709Z,32.40
2022-12-05T10:47:01.992Z,35.10
2022-12-05T10:49:45.780Z,34.00
2022-12-05T10:52:30.938Z,33.70
2022-12-05T10:55:17.753Z,33.40
2022-12-05T10:58:17.800Z,35.10
2022-12-05T11:01:08.621Z,31.50
2022-12-05T11:03:58.524Z,30.80
2022-12-05T11:06:50.909Z,35.60
2022-12-05T11:09:37.078Z,31.20
2022-12-05T11:12:40.318Z,28.40
2022-12-05T11:15:28.149Z,29.10
2022-12-05T11:18:29.720Z,30.80
2022-12-05T11:21:14.748Z,29.80
2022-12-05T11:23:59.199Z,29.60
2022-12-05T11:26:42.832Z,36.00
2022-12-05T11:29:57.980Z,31.30
2022-12-05T11:32:40.729Z,29.50
2022-12-05T11:38:13.069Z,28.80
2022-12-05T11:41:20.820Z,29.40
2022-12-05T11:44:35.984Z,28.10
2022-12-05T11:47:40.408Z,32.30
2022-12-05T11:50:29.145Z,31.60
2022-12-05T11:53:37.447Z,30.90
2022-12-05T11:56:26.532Z,29.50
2022-12-05T11:59:27.732Z,29.80
2022-12-05T12:02:35.342Z,29.90
2022-12-05T12:05:28.301Z,29.90
2022-12-05T12:08:20.358Z,30.30
2022-12-05T12:11:21.983Z,29.90
2022-12-05T12:14:19.129Z,30.40
2022-12-05T12:17:18.319Z,32.20
2022-12-05T12:20:29.296Z,31.50
2022-12-05T12:23:24.468Z,31.50
2022-12-05T12:26:28.768Z,31.00
2022-12-05T12:29:45.482Z,30.90
2022-12-05T12:32:51.604Z,32.90
2022-12-05T12:35:53.988Z,31.10
2022-12-05T12:38:52.555Z,32.00
2022-12-05T12:41:53.396Z,33.10
2022-12-05T12:44:44.951Z,31.40
2022-12-05T12:48:05.338Z,31.60
2022-12-05T12:50:52.939Z,32.90
2022-12-05T12:54:06.560Z,34.30
2022-12-05T12:57:28.149Z,32.50
2022-12-05T13:00:39.963Z,34.00
2022-12-05T13:03:25.579Z,36.10
2022-12-05T13:06:08.452Z,35.30
2022-12-05T13:11:41.448Z,34.80
2022-12-05T13:14:27.429Z,34.50
2022-12-05T13:17:17.770Z,36.30
2022-12-05T13:20:01.020Z,36.50
2022-12-05T13:22:45.741Z,36.80
2022-12-05T13:25:33.027Z,39.30
2022-12-05T13:28:42.400Z,37.60
2022-12-05T13:31:58.286Z,36.50
2022-12-05T13:35:11.599Z,33.70
2022-12-05T13:38:13.444Z,37.10
2022-12-05T13:41:14.778Z,35.70
2022-12-05T13:44:06.459Z,37.50
2022-12-05T13:46:50.126Z,40.30
2022-12-05T13:49:42.045Z,39.20
2022-12-05T13:52:29.567Z,37.70
2022-12-05T13:55:35.906Z,42.20
2022-12-05T13:58:19.245Z,42.20
2022-12-05T14:04:21.602Z,36.70
2022-12-05T14:07:04.369Z,39.50
2022-12-05T14:13:24.044Z,36.00
2022-12-05T14:16:25.322Z,38.00
2022-12-05T14:19:41.064Z,37.10
2022-12-05T14:22:39.230Z,38.00
2022-12-05T14:25:49.000Z,33.40
2022-12-05T14:28:46.762Z,37.20
2022-12-05T14:31:51.621Z,36.10
2022-12-05T14:34:38.414Z,39.10
2022-12-05T14:37:29.247Z,41.30
2022-12-05T14:40:26.618Z,40.00
2022-12-05T14:43:27.704Z,39.80
2022-12-05T14:46:32.430Z,35.80
2022-12-05T14:49:53.591Z,36.80
2022-12-05T14:52:38.863Z,37.70
2022-12-05T14:55:26.840Z,36.70
2022-12-05T14:58:40.759Z,36.00
2022-12-05T15:01:29.324Z,37.20
2022-12-05T15:04:25.801Z,33.40
2022-12-05T15:07:21.692Z,37.30
2022-12-05T15:10:27.535Z,36.80
2022-12-05T15:13:15.207Z,39.50
2022-12-05T15:16:06.420Z,39.30
2022-12-05T15:18:53.568Z,40.90
2022-12-05T15:21:42.429Z,39.50
2022-12-05T15:24:25.435Z,39.00
2022-12-05T15:27:12.019Z,39.40
2022-12-05T15:29:55.460Z,37.60
2022-12-05T15:32:38.374Z,41.50
2022-12-05T15:35:25.629Z,41.50
2022-12-05T15:38:25.482Z,38.60
2022-12-05T15:41:18.026Z,43.00
2022-12-05T15:44:00.942Z,40.70
2022-12-05T15:46:43.876Z,40.30
2022-12-05T15:49:28.772Z,39.10
2022-12-05T15:52:38.948Z,40.30
2022-12-05T15:55:35.455Z,37.50
2022-12-05T15:58:27.304Z,39.40
2022-12-05T16:01:22.952Z,38.20
2022-12-05T16:04:16.350Z,39.20
2022-12-05T16:07:04.183Z,37.20
2022-12-05T16:09:47.911Z,37.40
2022-12-05T16:12:30.723Z,40.60
2022-12-05T16:18:01.664Z,36.60
2022-12-05T16:20:46.522Z,40.30
2022-12-05T16:26:21.886Z,40.50
2022-12-05T16:29:04.798Z,38.80
2022-12-05T16:31:58.040Z,39.70
2022-12-05T16:34:41.176Z,41.60
2022-12-05T16:37:27.357Z,43.30
2022-12-05T16:40:22.575Z,41.60
2022-12-05T16:43:17.397Z,43.60
2022-12-05T16:46:13.525Z,45.40
2022-12-05T16:49:21.474Z,45.50
2022-12-05T16:52:07.503Z,46.00
2022-12-05T16:54:50.753Z,45.20
2022-12-05T16:57:33.551Z,44.20
2022-12-05T17:03:25.771Z,46.70
2022-12-05T17:06:03.778Z,46.70
2022-12-05T17:08:47.049Z,44.40
2022-12-05T17:11:32.771Z,45.80
2022-12-05T17:14:17.543Z,42.10
2022-12-05T17:17:03.733Z,42.80
2022-12-05T17:19:46.786Z,45.90
2022-12-05T17:22:29.499Z,44.00
2022-12-05T17:25:19.560Z,44.60
2022-12-05T17:28:02.761Z,45.20
2022-12-05T17:30:45.972Z,44.90
2022-12-05T17:33:28.881Z,43.30
2022-12-05T17:36:12.192Z,46.50
2022-12-05T17:38:57.008Z,46.20
2022-12-05T17:41:39.896Z,49.60
2022-12-05T17:44:22.810Z,47.60
2022-12-05T17:49:50.990Z,48.20
2022-12-05T17:55:36.451Z,47.60
2022-12-05T17:58:19.281Z,46.60
2022-12-05T18:01:04.021Z,52.20
2022-12-05T18:03:48.133Z,48.50
2022-12-05T18:06:31.079Z,48.70
2022-12-05T18:11:56.870Z,50.30
2022-12-05T18:14:39.636Z,49.90
2022-12-05T18:20:09.180Z,47.80
2022-12-05T18:22:51.970Z,51.70
2022-12-05T18:28:19.568Z,54.70
2022-12-05T18:31:05.615Z,49.30
2022-12-05T18:33:48.592Z,51.10
2022-12-05T18:36:31.485Z,53.60
2022-12-05T18:39:17.224Z,55.60
2022-12-05T18:42:00.041Z,54.80
2022-12-05T18:47:25.945Z,56.80
2022-12-05T18:50:11.128Z,57.20
2022-12-05T18:52:54.050Z,58.20
2022-12-05T18:56:13.787Z,58.40
2022-12-05T18:58:39.834Z,54.30
2022-12-05T19:01:23.143Z,55.20
2022-12-05T19:04:08.716Z,55.10
2022-12-05T19:06:54.041Z,51.80
2022-12-05T19:09:36.918Z,50.40
2022-12-05T19:12:21.184Z,53.90
2022-12-05T19:15:05.271Z,52.10
2022-12-05T19:17:48.144Z,52.60
2022-12-05T19:20:30.904Z,52.10
2022-12-05T19:26:01.005Z,50.70
2022-12-05T19:28:43.839Z,48.90
2022-12-05T19:34:11.438Z,50.00
2022-12-05T19:36:55.093Z,56.60
2022-12-05T19:39:38.151Z,55.10
2022-12-05T19:42:21.009Z,55.10
2022-12-05T19:45:09.516Z,52.10
2022-12-05T19:47:54.084Z,54.80
2022-12-05T19:53:19.722Z,53.80
2022-12-05T19:56:03.949Z,51.90
2022-12-05T19:58:47.863Z,54.50
2022-12-05T20:01:33.439Z,51.50
2022-12-05T20:04:16.971Z,52.00
2022-12-05T20:07:01.157Z,48.80
2022-12-05T20:09:43.947Z,49.70
2022-12-05T20:15:10.716Z,50.40
2022-12-05T20:17:53.988Z,49.60
2022-12-05T20:23:19.376Z,51.10
2022-12-05T20:26:07.965Z,51.80
2022-12-05T20:28:54.755Z,54.50
2022-12-05T20:31:40.593Z,50.10
2022-12-05T20:34:24.830Z,51.40
2022-12-05T20:37:07.644Z,52.20
2022-12-05T20:42:33.908Z,53.70
2022-12-05T20:47:59.459Z,48.70
2022-12-05T20:50:42.523Z,48.00
2022-12-05T20:53:25.314Z,48.80
2022-12-05T20:58:55.984Z,49.40
2022-12-05T21:01:40.296Z,47.00
2022-12-05T21:04:23.442Z,46.40
2022-12-05T21:07:06.724Z,51.00
2022-12-05T21:09:49.474Z,49.70
2022-12-05T21:15:14.960Z,47.10
2022-12-05T21:17:58.116Z,48.90
2022-12-05T21:20:42.373Z,55.70
2022-12-05T21:23:26.171Z,51.40
2022-12-05T21:26:12.903Z,50.20
2022-12-05T21:28:57.762Z,51.00
2022-12-05T21:31:42.591Z,51.70
2022-12-05T21:34:25.441Z,51.90
2022-12-05T21:39:51.981Z,47.80
2022-12-05T21:42:35.608Z,51.20
2022-12-05T21:45:18.369Z,54.00
2022-12-05T21:50:43.840Z,49.30
2022-12-05T21:56:12.420Z,48.40
2022-12-05T21:58:55.322Z,51.10
2022-12-05T22:01:38.187Z,49.50
2022-12-05T22:04:21.178Z,49.80
2022-12-05T22:07:04.004Z,54.90
2022-12-05T22:12:34.121Z,50.40
2022-12-05T22:15:17.054Z,52.20
2022-12-05T22:17:59.761Z,51.00
2022-12-05T22:23:25.326Z,51.30
2022-12-05T22:28:56.466Z,48.50
2022-12-05T22:31:39.390Z,55.20
2022-12-05T22:34:22.242Z,54.80
2022-12-05T22:39:47.724Z,55.70
2022-12-05T22:42:30.448Z,51.50
2022-12-05T22:45:13.378Z,56.30
2022-12-05T22:47:56.118Z,51.40
2022-12-05T22:53:23.731Z,49.80
2022-12-05T22:56:09.655Z,50.40
2022-12-05T22:59:00.760Z,53.80
2022-12-05T23:01:43.544Z,52.80
2022-12-05T23:07:09.400Z,52.50
2022-12-05T23:12:35.093Z,52.30
2022-12-05T23:18:01.880Z,53.80
2022-12-05T23:20:44.600Z,53.90
2022-12-05T23:26:14.770Z,51.10
2022-12-05T23:28:57.618Z,51.50
2022-12-05T23:31:41.935Z,53.20
2022-12-05T23:34:25.095Z,50.90
2022-12-05T23:37:08.011Z,52.60
2022-12-05T23:39:51.133Z,50.10
2022-12-05T23:42:33.995Z,50.00
2022-12-05T23:45:16.958Z,49.90
2022-12-05T23:48:04.374Z,49.60
2022-12-05T23:51:16.764Z,48.10
2022-12-05T23:54:02.236Z,50.00
2022-12-05T23:56:45.313Z,51.80
2022-12-05T23:59:28.065Z,48.60
